sensor_id;sensor_type;location;lat;lon;timestamp;temperature;humidity
7476;DHT22;3779;49.216;8.650;2023-06-26T00:01:19;26.00;52.80
7476;DHT22;3779;49.216;8.650;2023-06-26T00:04:06;26.00;53.00
7476;DHT22;3779;49.216;8.650;2023-06-26T00:06:52;26.00;53.00
7476;DHT22;3779;49.216;8.650;2023-06-26T00:09:38;26.00;53.10
7476;DHT22;3779;49.216;8.650;2023-06-26T00:12:24;26.00;53.00
7476;DHT22;3779;49.216;8.650;2023-06-26T00:15:10;26.10;53.10
7476;DHT22;3779;49.216;8.650;2023-06-26T00:17:58;26.10;53.10
7476;DHT22;3779;49.216;8.650;2023-06-26T00:20:44;26.00;52.90
7476;DHT22;3779;49.216;8.650;2023-06-26T00:23:30;26.00;52.90
7476;DHT22;3779;49.216;8.650;2023-06-26T00:26:18;26.00;53.00
7476;DHT22;3779;49.216;8.650;2023-06-26T00:29:03;25.90;52.90
7476;DHT22;3779;49.216;8.650;2023-06-26T00:31:49;25.90;52.90
7476;DHT22;3779;49.216;8.650;2023-06-26T00:34:35;25.90;52.90
7476;DHT22;3779;49.216;8.650;2023-06-26T00:37:21;26.00;52.90
7476;DHT22;3779;49.216;8.650;2023-06-26T00:40:08;26.00;53.20
7476;DHT22;3779;49.216;8.650;2023-06-26T00:42:54;25.90;53.00
7476;DHT22;3779;49.216;8.650;2023-06-26T00:45:40;25.90;52.50
7476;DHT22;3779;49.216;8.650;2023-06-26T00:48:27;26.00;52.50
7476;DHT22;3779;49.216;8.650;2023-06-26T00:51:13;25.90;52.60
7476;DHT22;3779;49.216;8.650;2023-06-26T00:53:59;25.90;52.50
7476;DHT22;3779;49.216;8.650;2023-06-26T00:56:46;25.90;52.40
7476;DHT22;3779;49.216;8.650;2023-06-26T00:59:33;25.90;52.40
7476;DHT22;3779;49.216;8.650;2023-06-26T01:02:19;25.90;52.70
7476;DHT22;3779;49.216;8.650;2023-06-26T01:11:09;25.80;53.10
7476;DHT22;3779;49.216;8.650;2023-06-26T01:13:58;25.80;53.10
7476;DHT22;3779;49.216;8.650;2023-06-26T01:17:32;25.80;53.00
7476;DHT22;3779;49.216;8.650;2023-06-26T01:21:22;25.80;52.90
7476;DHT22;3779;49.216;8.650;2023-06-26T01:25:11;25.80;53.40
7476;DHT22;3779;49.216;8.650;2023-06-26T01:28:00;25.80;53.40
7476;DHT22;3779;49.216;8.650;2023-06-26T01:30:58;25.80;53.10
7476;DHT22;3779;49.216;8.650;2023-06-26T01:33:52;26.00;53.40
7476;DHT22;3779;49.216;8.650;2023-06-26T01:37:26;25.80;53.20
7476;DHT22;3779;49.216;8.650;2023-06-26T01:40:45;25.70;53.40
7476;DHT22;3779;49.216;8.650;2023-06-26T01:44:10;25.80;52.90
7476;DHT22;3779;49.216;8.650;2023-06-26T01:47:22;25.70;53.20
7476;DHT22;3779;49.216;8.650;2023-06-26T01:50:20;25.70;53.00
7476;DHT22;3779;49.216;8.650;2023-06-26T01:53:19;25.70;52.80
7476;DHT22;3779;49.216;8.650;2023-06-26T01:56:14;25.70;52.70
7476;DHT22;3779;49.216;8.650;2023-06-26T01:59:03;25.70;52.70
7476;DHT22;3779;49.216;8.650;2023-06-26T02:01:54;25.70;52.70
7476;DHT22;3779;49.216;8.650;2023-06-26T02:04:47;25.60;53.00
7476;DHT22;3779;49.216;8.650;2023-06-26T02:07:38;25.60;53.00
7476;DHT22;3779;49.216;8.650;2023-06-26T02:10:27;25.70;53.20
7476;DHT22;3779;49.216;8.650;2023-06-26T02:13:25;25.70;53.20
7476;DHT22;3779;49.216;8.650;2023-06-26T02:16:31;25.60;53.10
7476;DHT22;3779;49.216;8.650;2023-06-26T02:19:20;25.60;53.00
7476;DHT22;3779;49.216;8.650;2023-06-26T02:22:11;25.60;53.10
7476;DHT22;3779;49.216;8.650;2023-06-26T02:25:02;25.60;52.90
7476;DHT22;3779;49.216;8.650;2023-06-26T02:28:22;25.60;53.00
7476;DHT22;3779;49.216;8.650;2023-06-26T02:31:24;25.60;53.30
7476;DHT22;3779;49.216;8.650;2023-06-26T02:34:41;25.60;52.70
7476;DHT22;3779;49.216;8.650;2023-06-26T02:37:30;25.60;52.70
7476;DHT22;3779;49.216;8.650;2023-06-26T02:40:19;25.50;53.10
7476;DHT22;3779;49.216;8.650;2023-06-26T02:43:14;25.80;52.80
7476;DHT22;3779;49.216;8.650;2023-06-26T02:46:01;25.50;52.60
7476;DHT22;3779;49.216;8.650;2023-06-26T02:48:51;25.50;52.70
7476;DHT22;3779;49.216;8.650;2023-06-26T02:51:40;25.50;52.90
7476;DHT22;3779;49.216;8.650;2023-06-26T02:54:41;25.50;53.00
7476;DHT22;3779;49.216;8.650;2023-06-26T02:57:27;25.50;52.80
7476;DHT22;3779;49.216;8.650;2023-06-26T03:00:15;25.50;52.90
7476;DHT22;3779;49.216;8.650;2023-06-26T03:03:07;25.50;52.70
7476;DHT22;3779;49.216;8.650;2023-06-26T03:05:56;25.60;52.70
7476;DHT22;3779;49.216;8.650;2023-06-26T03:08:45;25.50;52.60
7476;DHT22;3779;49.216;8.650;2023-06-26T03:11:38;25.50;52.60
7476;DHT22;3779;49.216;8.650;2023-06-26T03:14:26;25.50;52.70
7476;DHT22;3779;49.216;8.650;2023-06-26T03:17:18;25.50;52.60
7476;DHT22;3779;49.216;8.650;2023-06-26T03:20:12;25.50;52.60
7476;DHT22;3779;49.216;8.650;2023-06-26T03:23:07;25.50;52.80
7476;DHT22;3779;49.216;8.650;2023-06-26T03:25:54;25.50;52.70
7476;DHT22;3779;49.216;8.650;2023-06-26T03:28:54;25.40;52.90
7476;DHT22;3779;49.216;8.650;2023-06-26T03:31:42;25.40;53.00
7476;DHT22;3779;49.216;8.650;2023-06-26T03:37:20;25.40;53.00
7476;DHT22;3779;49.216;8.650;2023-06-26T03:40:16;25.70;53.10
7476;DHT22;3779;49.216;8.650;2023-06-26T03:43:04;25.60;52.90
7476;DHT22;3779;49.216;8.650;2023-06-26T03:46:04;25.50;52.90
7476;DHT22;3779;49.216;8.650;2023-06-26T03:48:53;25.40;52.80
7476;DHT22;3779;49.216;8.650;2023-06-26T03:51:41;25.40;52.80
7476;DHT22;3779;49.216;8.650;2023-06-26T03:54:29;25.40;52.80
7476;DHT22;3779;49.216;8.650;2023-06-26T03:57:19;25.40;52.80
7476;DHT22;3779;49.216;8.650;2023-06-26T04:00:07;25.40;52.80
7476;DHT22;3779;49.216;8.650;2023-06-26T04:03:00;25.40;52.80
7476;DHT22;3779;49.216;8.650;2023-06-26T04:05:51;25.40;52.80
7476;DHT22;3779;49.216;8.650;2023-06-26T04:08:38;25.40;52.60
7476;DHT22;3779;49.216;8.650;2023-06-26T04:11:29;25.50;52.90
7476;DHT22;3779;49.216;8.650;2023-06-26T04:14:41;25.40;52.70
7476;DHT22;3779;49.216;8.650;2023-06-26T04:20:15;25.40;52.90
7476;DHT22;3779;49.216;8.650;2023-06-26T04:23:04;25.40;53.00
7476;DHT22;3779;49.216;8.650;2023-06-26T04:25:53;25.00;52.90
7476;DHT22;3779;49.216;8.650;2023-06-26T05:26:43;25.70;54.50
7476;DHT22;3779;49.216;8.650;2023-06-26T05:31:21;25.70;54.50
7476;DHT22;3779;49.216;8.650;2023-06-26T05:40:14;25.80;54.20
7476;DHT22;3779;49.216;8.650;2023-06-26T05:44:01;25.80;53.80
7476;DHT22;3779;49.216;8.650;2023-06-26T06:03:30;25.90;53.30
7476;DHT22;3779;49.216;8.650;2023-06-26T07:05:43;26.10;54.20
7476;DHT22;3779;49.216;8.650;2023-06-26T07:08:36;26.00;54.20
7476;DHT22;3779;49.216;8.650;2023-06-26T07:11:57;26.10;54.00
7476;DHT22;3779;49.216;8.650;2023-06-26T11:18:42;25.40;57.90
7476;DHT22;3779;49.216;8.650;2023-06-26T11:25:03;25.40;57.90
7476;DHT22;3779;49.216;8.650;2023-06-26T11:43:47;25.40;58.10
7476;DHT22;3779;49.216;8.650;2023-06-26T11:46:56;25.40;57.90
7476;DHT22;3779;49.216;8.650;2023-06-26T11:49:43;25.40;57.80
7476;DHT22;3779;49.216;8.650;2023-06-26T11:52:34;25.40;58.00
7476;DHT22;3779;49.216;8.650;2023-06-26T11:55:22;25.70;57.90
7476;DHT22;3779;49.216;8.650;2023-06-26T11:58:07;25.60;57.50
7476;DHT22;3779;49.216;8.650;2023-06-26T12:00:53;26.00;56.10
7476;DHT22;3779;49.216;8.650;2023-06-26T12:03:39;25.80;56.50
7476;DHT22;3779;49.216;8.650;2023-06-26T12:06:28;25.70;56.90
7476;DHT22;3779;49.216;8.650;2023-06-26T12:09:15;25.50;57.30
7476;DHT22;3779;49.216;8.650;2023-06-26T12:12:03;25.50;57.40
7476;DHT22;3779;49.216;8.650;2023-06-26T12:14:50;25.60;57.10
7476;DHT22;3779;49.216;8.650;2023-06-26T12:17:39;25.60;57.00
7476;DHT22;3779;49.216;8.650;2023-06-26T12:20:25;25.50;57.00
7476;DHT22;3779;49.216;8.650;2023-06-26T12:23:13;25.50;57.20
7476;DHT22;3779;49.216;8.650;2023-06-26T12:26:18;25.50;57.20
7476;DHT22;3779;49.216;8.650;2023-06-26T12:29:06;25.40;57.30
7476;DHT22;3779;49.216;8.650;2023-06-26T12:31:55;25.40;57.30
7476;DHT22;3779;49.216;8.650;2023-06-26T12:34:41;25.50;57.20
7476;DHT22;3779;49.216;8.650;2023-06-26T12:37:28;25.40;57.00
7476;DHT22;3779;49.216;8.650;2023-06-26T12:40:18;25.40;57.10
7476;DHT22;3779;49.216;8.650;2023-06-26T12:43:04;25.40;56.90
7476;DHT22;3779;49.216;8.650;2023-06-26T12:45:54;25.40;56.60
7476;DHT22;3779;49.216;8.650;2023-06-26T12:48:43;25.40;56.60
7476;DHT22;3779;49.216;8.650;2023-06-26T12:51:29;25.40;56.50
7476;DHT22;3779;49.216;8.650;2023-06-26T12:54:16;25.40;56.40
7476;DHT22;3779;49.216;8.650;2023-06-26T12:57:04;25.40;56.40
7476;DHT22;3779;49.216;8.650;2023-06-26T12:59:51;25.40;56.50
7476;DHT22;3779;49.216;8.650;2023-06-26T13:02:40;25.40;56.90
7476;DHT22;3779;49.216;8.650;2023-06-26T13:05:26;25.70;56.50
7476;DHT22;3779;49.216;8.650;2023-06-26T13:08:12;25.40;56.10
7476;DHT22;3779;49.216;8.650;2023-06-26T13:11:00;25.40;56.10
7476;DHT22;3779;49.216;8.650;2023-06-26T13:13:46;25.40;56.30
7476;DHT22;3779;49.216;8.650;2023-06-26T13:16:32;25.40;56.00
7476;DHT22;3779;49.216;8.650;2023-06-26T13:19:18;25.30;56.20
7476;DHT22;3779;49.216;8.650;2023-06-26T13:22:04;25.40;56.10
7476;DHT22;3779;49.216;8.650;2023-06-26T13:24:50;25.40;55.90
7476;DHT22;3779;49.216;8.650;2023-06-26T13:27:38;25.40;56.00
7476;DHT22;3779;49.216;8.650;2023-06-26T13:30:23;25.40;55.70
7476;DHT22;3779;49.216;8.650;2023-06-26T13:33:10;25.50;55.70
7476;DHT22;3779;49.216;8.650;2023-06-26T13:35:58;25.50;55.60
7476;DHT22;3779;49.216;8.650;2023-06-26T13:38:45;25.50;55.80
7476;DHT22;3779;49.216;8.650;2023-06-26T13:41:30;25.40;55.70
7476;DHT22;3779;49.216;8.650;2023-06-26T13:44:16;25.40;55.40
7476;DHT22;3779;49.216;8.650;2023-06-26T13:47:02;25.40;55.30
7476;DHT22;3779;49.216;8.650;2023-06-26T13:49:49;25.50;55.20
7476;DHT22;3779;49.216;8.650;2023-06-26T13:52:35;25.50;55.20
7476;DHT22;3779;49.216;8.650;2023-06-26T13:55:20;25.50;55.20
7476;DHT22;3779;49.216;8.650;2023-06-26T13:58:08;25.50;55.40
7476;DHT22;3779;49.216;8.650;2023-06-26T14:00:54;25.40;55.40
7476;DHT22;3779;49.216;8.650;2023-06-26T14:03:40;25.40;55.30
7476;DHT22;3779;49.216;8.650;2023-06-26T14:06:26;25.40;55.20
7476;DHT22;3779;49.216;8.650;2023-06-26T14:09:13;25.40;55.10
7476;DHT22;3779;49.216;8.650;2023-06-26T14:11:59;25.50;55.10
7476;DHT22;3779;49.216;8.650;2023-06-26T14:14:45;25.50;55.20
7476;DHT22;3779;49.216;8.650;2023-06-26T14:17:32;25.50;55.20
7476;DHT22;3779;49.216;8.650;2023-06-26T14:20:19;25.50;54.90
7476;DHT22;3779;49.216;8.650;2023-06-26T14:23:06;25.80;55.30
7476;DHT22;3779;49.216;8.650;2023-06-26T14:25:52;25.50;55.00
7476;DHT22;3779;49.216;8.650;2023-06-26T14:28:38;25.50;54.90
7476;DHT22;3779;49.216;8.650;2023-06-26T14:31:25;25.70;55.10
7476;DHT22;3779;49.216;8.650;2023-06-26T14:34:11;25.50;54.90
7476;DHT22;3779;49.216;8.650;2023-06-26T14:36:58;25.50;54.70
7476;DHT22;3779;49.216;8.650;2023-06-26T14:39:46;25.40;54.70
7476;DHT22;3779;49.216;8.650;2023-06-26T14:42:31;25.60;54.90
7476;DHT22;3779;49.216;8.650;2023-06-26T14:48:20;25.30;54.70
7476;DHT22;3779;49.216;8.650;2023-06-26T14:51:13;25.40;54.50
7476;DHT22;3779;49.216;8.650;2023-06-26T14:54:19;25.40;54.30
7476;DHT22;3779;49.216;8.650;2023-06-26T15:00:34;25.80;52.90
7476;DHT22;3779;49.216;8.650;2023-06-26T15:15:11;25.40;53.10
7476;DHT22;3779;49.216;8.650;2023-06-26T15:18:12;25.40;52.70
7476;DHT22;3779;49.216;8.650;2023-06-26T15:21:20;25.40;52.50
7476;DHT22;3779;49.216;8.650;2023-06-26T15:24:10;25.70;52.40
7476;DHT22;3779;49.216;8.650;2023-06-26T15:27:14;25.50;51.20
7476;DHT22;3779;49.216;8.650;2023-06-26T15:30:00;25.90;50.60
7476;DHT22;3779;49.216;8.650;2023-06-26T15:33:18;26.00;50.80
7476;DHT22;3779;49.216;8.650;2023-06-26T15:36:35;25.80;50.50
7476;DHT22;3779;49.216;8.650;2023-06-26T15:48:15;25.80;50.10
7476;DHT22;3779;49.216;8.650;2023-06-26T15:51:03;25.80;50.00
7476;DHT22;3779;49.216;8.650;2023-06-26T15:53:52;25.80;49.60
7476;DHT22;3779;49.216;8.650;2023-06-26T15:56:40;25.80;49.50
7476;DHT22;3779;49.216;8.650;2023-06-26T16:02:42;25.80;49.30
7476;DHT22;3779;49.216;8.650;2023-06-26T16:06:58;25.70;49.20
7476;DHT22;3779;49.216;8.650;2023-06-26T16:09:47;25.70;49.40
7476;DHT22;3779;49.216;8.650;2023-06-26T16:12:35;25.80;49.50
7476;DHT22;3779;49.216;8.650;2023-06-26T16:19:43;26.10;47.00
7476;DHT22;3779;49.216;8.650;2023-06-26T17:07:18;26.80;42.80
7476;DHT22;3779;49.216;8.650;2023-06-26T17:10:06;26.50;46.10
7476;DHT22;3779;49.216;8.650;2023-06-26T17:13:07;26.00;47.60
7476;DHT22;3779;49.216;8.650;2023-06-26T17:15:56;25.70;48.10
7476;DHT22;3779;49.216;8.650;2023-06-26T17:18:45;25.60;48.10
7476;DHT22;3779;49.216;8.650;2023-06-26T17:21:32;25.50;48.60
7476;DHT22;3779;49.216;8.650;2023-06-26T17:24:31;25.70;48.70
7476;DHT22;3779;49.216;8.650;2023-06-26T17:27:23;25.70;48.70
7476;DHT22;3779;49.216;8.650;2023-06-26T17:30:19;25.40;48.80
7476;DHT22;3779;49.216;8.650;2023-06-26T17:33:27;25.40;48.90
7476;DHT22;3779;49.216;8.650;2023-06-26T17:40:52;25.40;48.50
7476;DHT22;3779;49.216;8.650;2023-06-26T17:43:55;25.70;47.40
7476;DHT22;3779;49.216;8.650;2023-06-26T17:48:40;25.70;47.90
7476;DHT22;3779;49.216;8.650;2023-06-26T17:52:32;25.50;48.20
7476;DHT22;3779;49.216;8.650;2023-06-26T17:55:53;25.40;48.40
7476;DHT22;3779;49.216;8.650;2023-06-26T17:58:50;25.40;48.30
7476;DHT22;3779;49.216;8.650;2023-06-26T18:01:52;25.50;48.20
7476;DHT22;3779;49.216;8.650;2023-06-26T18:05:43;25.50;48.00
7476;DHT22;3779;49.216;8.650;2023-06-26T18:08:52;25.50;48.00
7476;DHT22;3779;49.216;8.650;2023-06-26T18:11:51;25.80;48.20
7476;DHT22;3779;49.216;8.650;2023-06-26T18:14:48;25.60;48.10
7476;DHT22;3779;49.216;8.650;2023-06-26T18:23:21;25.50;47.80
7476;DHT22;3779;49.216;8.650;2023-06-26T18:26:16;25.80;45.40
7476;DHT22;3779;49.216;8.650;2023-06-26T18:29:54;26.20;44.40
7476;DHT22;3779;49.216;8.650;2023-06-26T19:12:01;26.70;40.10
7476;DHT22;3779;49.216;8.650;2023-06-26T19:14:59;26.70;39.80
7476;DHT22;3779;49.216;8.650;2023-06-26T19:18:31;26.70;39.50
7476;DHT22;3779;49.216;8.650;2023-06-26T19:22:59;26.70;40.00
7476;DHT22;3779;49.216;8.650;2023-06-26T19:27:25;26.70;40.20
7476;DHT22;3779;49.216;8.650;2023-06-26T19:31:13;26.70;41.00
7476;DHT22;3779;49.216;8.650;2023-06-26T19:34:14;26.70;39.90
7476;DHT22;3779;49.216;8.650;2023-06-26T19:42:26;26.70;41.80
7476;DHT22;3779;49.216;8.650;2023-06-26T19:50:33;26.60;41.20
7476;DHT22;3779;49.216;8.650;2023-06-26T19:53:46;26.70;40.60
7476;DHT22;3779;49.216;8.650;2023-06-26T19:57:51;26.30;40.90
7476;DHT22;3779;49.216;8.650;2023-06-26T20:01:41;26.70;41.50
7476;DHT22;3779;49.216;8.650;2023-06-26T20:10:11;26.70;41.80
7476;DHT22;3779;49.216;8.650;2023-06-26T20:14:29;26.60;41.70
7476;DHT22;3779;49.216;8.650;2023-06-26T20:17:35;26.70;42.00
7476;DHT22;3779;49.216;8.650;2023-06-26T20:21:29;26.70;41.20
7476;DHT22;3779;49.216;8.650;2023-06-26T20:25:06;26.70;41.70
7476;DHT22;3779;49.216;8.650;2023-06-26T20:28:39;26.60;41.70
7476;DHT22;3779;49.216;8.650;2023-06-26T20:38:02;26.10;42.50
7476;DHT22;3779;49.216;8.650;2023-06-26T20:42:23;26.60;43.00
7476;DHT22;3779;49.216;8.650;2023-06-26T20:46:38;26.60;42.60
7476;DHT22;3779;49.216;8.650;2023-06-26T20:51:03;26.60;41.90
